createdAt,value
2018-07-25T00:00:03.392Z,8.67
2018-07-25T00:00:38.017Z,8.80
2018-07-25T00:01:11.930Z,8.20
2018-07-25T00:01:46.338Z,8.33
2018-07-25T00:02:20.233Z,7.90
2018-07-25T00:02:54.513Z,8.30
2018-07-25T00:03:28.670Z,7.87
2018-07-25T00:04:02.634Z,7.73
2018-07-25T00:04:36.494Z,7.77
2018-07-25T00:05:10.692Z,7.90
2018-07-25T00:05:44.589Z,7.93
2018-07-25T00:06:18.530Z,7.60
2018-07-25T00:06:52.952Z,7.63
2018-07-25T00:07:27.154Z,8.10
2018-07-25T00:08:01.060Z,8.23
2018-07-25T00:08:34.968Z,7.63
2018-07-25T00:09:09.954Z,8.33
2018-07-25T00:09:43.858Z,9.10
2018-07-25T00:10:18.078Z,7.83
2018-07-25T00:10:55.804Z,8.53
2018-07-25T00:11:29.826Z,8.13
2018-07-25T00:12:04.019Z,7.90
2018-07-25T00:12:41.490Z,8.20
2018-07-25T00:13:16.982Z,7.20
2018-07-25T00:13:51.496Z,8.00
2018-07-25T00:14:25.410Z,7.77
2018-07-25T00:14:59.268Z,7.47
2018-07-25T00:15:33.456Z,7.30
2018-07-25T00:16:07.634Z,8.10
2018-07-25T00:16:41.480Z,7.73
2018-07-25T00:17:15.320Z,7.90
2018-07-25T00:17:49.436Z,8.10
2018-07-25T00:18:23.306Z,7.43
2018-07-25T00:18:57.158Z,8.00
2018-07-25T00:19:30.984Z,7.80
2018-07-25T00:20:05.393Z,8.23
2018-07-25T00:20:39.879Z,7.97
2018-07-25T00:21:13.732Z,7.70
2018-07-25T00:21:47.622Z,8.20
2018-07-25T00:22:21.642Z,8.53
2018-07-25T00:22:55.492Z,7.73
2018-07-25T00:23:29.701Z,8.50
2018-07-25T00:24:03.540Z,7.23
2018-07-25T00:24:38.222Z,8.00
2018-07-25T00:25:12.067Z,7.60
2018-07-25T00:25:45.980Z,7.97
2018-07-25T00:26:19.838Z,8.20
2018-07-25T00:26:54.206Z,7.27
2018-07-25T00:27:28.636Z,6.60
2018-07-25T00:28:02.519Z,7.27
2018-07-25T00:28:36.440Z,8.47
2018-07-25T00:29:10.326Z,7.40
2018-07-25T00:29:47.058Z,7.43
2018-07-25T00:30:20.893Z,7.53
2018-07-25T00:30:55.094Z,7.70
2018-07-25T00:31:29.330Z,7.27
2018-07-25T00:32:03.182Z,8.20
2018-07-25T00:32:37.050Z,7.03
2018-07-25T00:33:12.089Z,7.50
2018-07-25T00:33:46.004Z,7.47
2018-07-25T00:34:19.880Z,7.20
2018-07-25T00:34:53.773Z,7.13
2018-07-25T00:35:27.666Z,7.43
2018-07-25T00:36:01.600Z,7.63
2018-07-25T00:36:35.457Z,7.57
2018-07-25T00:37:09.312Z,7.30
2018-07-25T00:37:43.258Z,7.57
2018-07-25T00:38:17.151Z,7.53
2018-07-25T00:38:51.052Z,7.43
2018-07-25T00:39:24.937Z,7.47
2018-07-25T00:39:59.628Z,7.60
2018-07-25T00:40:33.817Z,8.50
2018-07-25T00:41:07.644Z,8.23
2018-07-25T00:41:41.687Z,7.03
2018-07-25T00:42:15.584Z,8.20
2018-07-25T00:42:49.970Z,7.83
2018-07-25T00:43:23.838Z,7.70
2018-07-25T00:43:57.746Z,7.10
2018-07-25T00:44:31.651Z,7.60
2018-07-25T00:45:05.494Z,8.30
2018-07-25T00:45:39.416Z,7.70
2018-07-25T00:46:13.347Z,7.40
2018-07-25T00:46:47.222Z,7.17
2018-07-25T00:47:21.242Z,8.00
2018-07-25T00:47:55.127Z,7.63
2018-07-25T00:48:29.264Z,7.97
2018-07-25T00:49:03.164Z,8.00
2018-07-25T00:49:37.383Z,8.30
2018-07-25T00:50:11.327Z,8.10
2018-07-25T00:50:45.184Z,7.57
2018-07-25T00:51:19.080Z,8.27
2018-07-25T00:51:53.331Z,7.30
2018-07-25T00:52:27.674Z,7.60
2018-07-25T00:53:01.561Z,7.53
2018-07-25T00:53:36.144Z,8.17
2018-07-25T00:54:10.035Z,7.80
2018-07-25T00:54:43.892Z,7.50
2018-07-25T00:55:18.478Z,8.10
2018-07-25T00:55:52.532Z,7.40
2018-07-25T00:56:26.715Z,7.47
2018-07-25T00:57:00.568Z,7.40
2018-07-25T00:57:34.764Z,7.60
2018-07-25T00:58:08.747Z,7.77
2018-07-25T00:58:42.645Z,8.20
2018-07-25T00:59:16.912Z,7.97
2018-07-25T00:59:50.807Z,8.17
2018-07-25T01:00:25.362Z,8.33
2018-07-25T01:00:59.233Z,7.83
2018-07-25T01:01:33.103Z,7.77
2018-07-25T01:02:07.072Z,7.57
2018-07-25T01:02:41.172Z,7.83
2018-07-25T01:03:15.017Z,7.40
2018-07-25T01:03:48.885Z,8.00
2018-07-25T01:04:22.780Z,7.33
2018-07-25T01:04:56.674Z,7.50
2018-07-25T01:05:30.850Z,7.13
2018-07-25T01:06:05.065Z,7.43
2018-07-25T01:06:39.279Z,7.83
2018-07-25T01:07:13.504Z,7.07
2018-07-25T01:07:47.445Z,7.67
2018-07-25T01:08:21.696Z,8.07
2018-07-25T01:08:55.957Z,8.47
2018-07-25T01:09:29.857Z,7.33
2018-07-25T01:10:04.251Z,6.93
2018-07-25T01:10:41.917Z,8.03
2018-07-25T01:11:16.121Z,7.30
2018-07-25T01:11:50.086Z,7.37
2018-07-25T01:12:24.285Z,7.03
2018-07-25T01:12:58.485Z,7.47
2018-07-25T01:13:32.375Z,7.47
2018-07-25T01:14:06.570Z,7.70
2018-07-25T01:14:40.463Z,7.80
2018-07-25T01:15:14.659Z,7.40
2018-07-25T01:15:48.863Z,7.13
2018-07-25T01:16:23.067Z,8.03
2018-07-25T01:16:56.907Z,7.67
2018-07-25T01:17:31.483Z,6.87
2018-07-25T01:18:05.379Z,7.13
2018-07-25T01:18:39.240Z,6.70
2018-07-25T01:19:13.101Z,7.77
2018-07-25T01:19:47.563Z,7.10
2018-07-25T01:20:21.435Z,7.90
2018-07-25T01:20:56.025Z,7.33
2018-07-25T01:21:29.921Z,8.80
2018-07-25T01:22:03.803Z,8.37
2018-07-25T01:22:37.692Z,7.60
2018-07-25T01:23:11.861Z,7.03
2018-07-25T01:23:46.135Z,7.10
2018-07-25T01:24:20.355Z,7.10
2018-07-25T01:24:54.668Z,6.60
2018-07-25T01:25:29.392Z,7.53
2018-07-25T01:26:03.315Z,7.00
2018-07-25T01:26:37.273Z,8.00
2018-07-25T01:27:11.134Z,7.77
2018-07-25T01:27:45.360Z,7.37
2018-07-25T01:28:19.237Z,7.80
2018-07-25T01:28:53.112Z,6.77
2018-07-25T01:29:27.311Z,7.40
2018-07-25T01:30:01.621Z,7.20
2018-07-25T01:30:35.533Z,7.27
2018-07-25T01:31:09.712Z,7.57
2018-07-25T01:31:43.589Z,7.10
2018-07-25T01:32:17.811Z,7.97
2018-07-25T01:32:51.721Z,7.27
2018-07-25T01:33:25.621Z,7.20
2018-07-25T01:33:59.495Z,7.73
2018-07-25T01:34:33.395Z,7.33
2018-07-25T01:35:07.595Z,7.40
2018-07-25T01:35:41.795Z,7.80
2018-07-25T01:36:55.813Z,6.87
2018-07-25T01:37:30.017Z,8.43
2018-07-25T01:38:03.911Z,7.03
2018-07-25T01:38:37.770Z,7.73
2018-07-25T01:39:12.025Z,7.40
2018-07-25T01:39:45.915Z,8.27
2018-07-25T01:40:20.212Z,8.67
2018-07-25T01:40:54.157Z,7.80
2018-07-25T01:41:27.785Z,7.40
2018-07-25T01:42:01.907Z,8.37
2018-07-25T01:42:36.143Z,8.37
2018-07-25T01:43:10.366Z,8.03
2018-07-25T01:43:44.231Z,8.13
2018-07-25T01:44:18.197Z,7.60
2018-07-25T01:44:52.033Z,7.90
2018-07-25T01:45:25.939Z,8.50
2018-07-25T01:45:59.766Z,8.50
2018-07-25T01:46:33.633Z,7.90
2018-07-25T01:47:07.499Z,8.30
2018-07-25T01:47:42.023Z,8.20
2018-07-25T01:48:15.876Z,8.37
2018-07-25T01:48:49.848Z,8.63
2018-07-25T01:49:23.964Z,7.97
2018-07-25T01:49:58.197Z,8.90
2018-07-25T01:50:32.469Z,8.53
2018-07-25T01:51:06.362Z,8.00
2018-07-25T01:51:40.295Z,7.40
2018-07-25T01:52:14.193Z,8.17
2018-07-25T01:52:48.432Z,8.70
2018-07-25T01:53:22.309Z,7.80
2018-07-25T01:53:56.285Z,8.90
2018-07-25T01:54:29.946Z,8.03
2018-07-25T01:55:04.241Z,8.57
2018-07-25T01:55:38.178Z,8.20
2018-07-25T01:56:12.069Z,7.40
2018-07-25T01:56:46.288Z,7.43
2018-07-25T01:57:20.165Z,7.30
2018-07-25T01:57:54.027Z,8.00
2018-07-25T01:58:27.913Z,7.90
2018-07-25T01:59:01.851Z,8.87
2018-07-25T01:59:35.687Z,7.10
2018-07-25T02:00:09.636Z,8.23
2018-07-25T02:00:45.927Z,8.13
2018-07-25T02:01:20.155Z,8.77
2018-07-25T02:01:54.734Z,7.77
2018-07-25T02:02:28.955Z,6.60
2018-07-25T02:03:02.925Z,8.43
2018-07-25T02:03:36.819Z,8.30
2018-07-25T02:04:10.669Z,8.30
2018-07-25T02:04:44.964Z,7.60
2018-07-25T02:05:18.895Z,7.90
2018-07-25T02:05:52.851Z,8.03
2018-07-25T02:06:26.699Z,8.00
2018-07-25T02:07:00.574Z,7.90
2018-07-25T02:07:34.794Z,8.40
2018-07-25T02:08:08.851Z,8.03
2018-07-25T02:08:42.880Z,8.17
2018-07-25T02:09:16.762Z,7.80
2018-07-25T02:09:50.627Z,8.57
2018-07-25T02:10:24.859Z,7.40
2018-07-25T02:10:59.141Z,7.60
2018-07-25T02:11:33.377Z,8.00
2018-07-25T02:12:07.949Z,8.07
2018-07-25T02:12:42.111Z,7.60
2018-07-25T02:13:16.981Z,8.20
2018-07-25T02:13:50.897Z,7.77
2018-07-25T02:14:24.796Z,7.70
2018-07-25T02:14:59.033Z,7.10
2018-07-25T02:15:32.913Z,8.07
2018-07-25T02:16:06.848Z,7.70
2018-07-25T02:16:41.081Z,7.10
2018-07-25T02:17:14.977Z,7.87
2018-07-25T02:17:48.840Z,8.13
2018-07-25T02:18:22.734Z,7.97
2018-07-25T02:18:56.641Z,8.07
2018-07-25T02:19:30.922Z,8.10
2018-07-25T02:20:05.171Z,7.90
2018-07-25T02:20:39.366Z,7.97
2018-07-25T02:21:13.643Z,8.87
2018-07-25T02:21:47.544Z,8.00
2018-07-25T02:22:21.439Z,7.53
2018-07-25T02:22:55.356Z,7.63
2018-07-25T02:23:29.247Z,7.80
2018-07-25T02:24:03.163Z,7.43
2018-07-25T02:24:37.022Z,8.70
2018-07-25T02:25:10.933Z,8.40
2018-07-25T02:25:45.459Z,8.00
2018-07-25T02:26:19.367Z,8.20
2018-07-25T02:26:53.349Z,8.53
2018-07-25T02:27:27.031Z,8.43
2018-07-25T02:28:00.813Z,8.10
2018-07-25T02:28:35.015Z,7.60
2018-07-25T02:29:09.205Z,7.90
2018-07-25T02:29:43.088Z,7.90
2018-07-25T02:30:16.953Z,7.37
2018-07-25T02:30:50.832Z,8.03
2018-07-25T02:31:24.713Z,8.10
2018-07-25T02:31:58.595Z,8.67
2018-07-25T02:32:32.517Z,8.13
2018-07-25T02:33:06.693Z,8.07
2018-07-25T02:33:46.109Z,8.20
2018-07-25T02:34:20.497Z,7.80
2018-07-25T02:34:54.373Z,8.63
2018-07-25T02:35:28.641Z,9.10
2018-07-25T02:36:02.511Z,8.20
2018-07-25T02:36:36.777Z,8.03
2018-07-25T02:37:10.977Z,9.37
2018-07-25T02:37:45.239Z,8.73
2018-07-25T02:38:19.091Z,7.93
2018-07-25T02:38:52.953Z,8.30
2018-07-25T02:39:26.877Z,8.60
2018-07-25T02:40:01.106Z,7.97
2018-07-25T02:40:35.309Z,8.37
2018-07-25T02:41:09.201Z,7.77
2018-07-25T02:41:44.643Z,8.30
2018-07-25T02:42:18.917Z,8.00
2018-07-25T02:42:52.932Z,8.47
2018-07-25T02:43:26.829Z,7.80
2018-07-25T02:44:00.750Z,7.93
2018-07-25T02:44:34.642Z,8.13
2018-07-25T02:45:08.638Z,7.60
2018-07-25T02:45:45.438Z,8.97
2018-07-25T02:46:19.329Z,7.87
2018-07-25T02:46:53.230Z,8.33
2018-07-25T02:47:27.468Z,8.17
2018-07-25T02:48:01.327Z,8.10
2018-07-25T02:48:35.162Z,8.70
2018-07-25T02:49:09.200Z,7.80
2018-07-25T02:49:43.034Z,7.50
2018-07-25T02:50:16.939Z,7.90
2018-07-25T02:50:50.807Z,7.60
2018-07-25T02:51:24.733Z,8.27
2018-07-25T02:51:58.627Z,7.60
2018-07-25T02:52:32.801Z,8.00
2018-07-25T02:53:06.665Z,7.83
2018-07-25T02:53:40.889Z,8.30
2018-07-25T02:54:15.099Z,8.20
2018-07-25T02:54:48.985Z,8.40
2018-07-25T02:55:22.902Z,8.60
2018-07-25T02:55:57.134Z,8.10
2018-07-25T02:56:31.411Z,7.93
2018-07-25T02:57:05.233Z,7.83
2018-07-25T02:57:39.085Z,7.27
2018-07-25T02:58:13.257Z,7.40
2018-07-25T02:58:47.093Z,7.57
2018-07-25T02:59:21.144Z,7.67
2018-07-25T02:59:55.933Z,7.17
2018-07-25T03:00:29.802Z,7.70
2018-07-25T03:01:03.689Z,9.40
2018-07-25T03:01:37.543Z,7.73
2018-07-25T03:02:11.453Z,7.20
2018-07-25T03:02:45.709Z,8.17
2018-07-25T03:03:19.580Z,7.80
2018-07-25T03:03:53.454Z,8.40
2018-07-25T03:04:27.315Z,7.70
2018-07-25T03:05:01.143Z,7.70
2018-07-25T03:05:35.325Z,7.90
2018-07-25T03:06:09.199Z,7.83
2018-07-25T03:06:43.114Z,7.60
2018-07-25T03:07:17.353Z,8.57
2018-07-25T03:07:51.248Z,7.50
2018-07-25T03:08:25.165Z,7.60
2018-07-25T03:08:58.778Z,8.30
2018-07-25T03:09:32.731Z,8.20
2018-07-25T03:10:06.827Z,8.73
2018-07-25T03:10:44.957Z,8.13
2018-07-25T03:11:19.145Z,7.90
2018-07-25T03:11:53.015Z,8.03
2018-07-25T03:12:27.255Z,8.23
2018-07-25T03:13:01.794Z,8.37
2018-07-25T03:13:36.036Z,8.10
2018-07-25T03:14:09.922Z,7.53
2018-07-25T03:14:44.153Z,7.73
2018-07-25T03:15:18.785Z,8.40
2018-07-25T03:16:04.178Z,8.30
2018-07-25T03:16:38.461Z,8.13
2018-07-25T03:17:12.505Z,8.00
2018-07-25T03:17:46.810Z,8.50
2018-07-25T03:18:20.651Z,8.10
2018-07-25T03:18:54.501Z,8.83
2018-07-25T03:19:28.363Z,7.93
2018-07-25T03:20:02.225Z,7.80
2018-07-25T03:20:36.105Z,7.70
2018-07-25T03:21:10.613Z,7.60
2018-07-25T03:21:44.512Z,7.63
2018-07-25T03:22:18.315Z,8.57
2018-07-25T03:22:52.220Z,8.00
2018-07-25T03:23:26.191Z,8.27
2018-07-25T03:24:00.068Z,8.17
2018-07-25T03:24:33.955Z,8.73
2018-07-25T03:25:07.835Z,8.13
2018-07-25T03:25:42.075Z,7.87
2018-07-25T03:26:16.609Z,8.27
2018-07-25T03:26:50.510Z,7.60
2018-07-25T03:27:24.371Z,8.07
2018-07-25T03:27:58.295Z,8.70
2018-07-25T03:28:32.432Z,8.33
2018-07-25T03:29:06.675Z,7.70
2018-07-25T03:29:41.207Z,8.50
2018-07-25T03:30:15.076Z,7.83
2018-07-25T03:30:49.301Z,7.83
2018-07-25T03:31:23.271Z,8.23
2018-07-25T03:31:57.295Z,8.50
2018-07-25T03:32:31.164Z,7.80
2018-07-25T03:33:05.060Z,8.67
2018-07-25T03:33:38.926Z,7.90
2018-07-25T03:34:13.154Z,7.93
2018-07-25T03:34:47.048Z,7.23
2018-07-25T03:35:20.916Z,7.90
2018-07-25T03:35:56.218Z,8.00
2018-07-25T03:36:30.108Z,7.97
2018-07-25T03:37:04.679Z,8.33
2018-07-25T03:37:38.516Z,7.47
2018-07-25T03:38:12.400Z,7.87
2018-07-25T03:38:46.336Z,8.30
2018-07-25T03:39:20.258Z,7.10
2018-07-25T03:39:54.102Z,8.70
2018-07-25T03:40:27.972Z,6.90
2018-07-25T03:41:02.476Z,7.80
2018-07-25T03:41:36.349Z,8.50
2018-07-25T03:42:10.216Z,7.93
2018-07-25T03:42:44.050Z,7.60
2018-07-25T03:43:17.953Z,7.87
2018-07-25T03:43:51.801Z,8.10
2018-07-25T03:44:25.973Z,7.83
2018-07-25T03:44:59.855Z,7.90
2018-07-25T03:45:33.713Z,7.60
2018-07-25T03:46:07.931Z,7.10
2018-07-25T03:46:41.814Z,7.60
2018-07-25T03:47:15.652Z,7.73
2018-07-25T03:47:49.890Z,7.77
2018-07-25T03:48:24.095Z,7.10
2018-07-25T03:48:57.953Z,7.50
2018-07-25T03:49:31.830Z,6.80
2018-07-25T03:50:05.764Z,7.80
2018-07-25T03:50:39.992Z,7.60
2018-07-25T03:51:13.840Z,7.50
2018-07-25T03:51:47.669Z,6.70
2018-07-25T03:52:21.529Z,7.03
2018-07-25T03:52:55.373Z,6.73
2018-07-25T03:53:29.553Z,6.63
2018-07-25T03:54:03.453Z,7.30
2018-07-25T03:54:37.329Z,6.80
2018-07-25T03:55:11.515Z,7.30
2018-07-25T03:55:45.732Z,7.00
2018-07-25T03:56:19.665Z,7.10
2018-07-25T03:56:54.220Z,7.47
2018-07-25T03:57:28.082Z,6.60
2018-07-25T03:58:01.938Z,6.80
2018-07-25T03:58:35.820Z,6.70
2018-07-25T03:59:09.982Z,6.80
2018-07-25T03:59:43.895Z,6.67
2018-07-25T04:00:18.103Z,6.27
2018-07-25T04:00:51.945Z,6.47
2018-07-25T04:01:25.777Z,6.37
2018-07-25T04:01:59.978Z,6.77
2018-07-25T04:02:34.062Z,6.67
2018-07-25T04:03:08.114Z,7.27
2018-07-25T04:03:42.018Z,6.10
2018-07-25T04:04:16.051Z,6.93
2018-07-25T04:04:49.925Z,6.57
2018-07-25T04:05:23.805Z,5.83
2018-07-25T04:05:57.675Z,6.30
2018-07-25T04:06:31.798Z,5.87
2018-07-25T04:07:05.685Z,6.20
2018-07-25T04:07:39.551Z,5.93
2018-07-25T04:08:13.401Z,5.57
2018-07-25T04:08:47.825Z,5.90
2018-07-25T04:09:21.724Z,6.20
2018-07-25T04:09:55.669Z,5.97
2018-07-25T04:10:29.535Z,5.97
2018-07-25T04:11:03.415Z,5.80
2018-07-25T04:11:37.412Z,5.67
2018-07-25T04:12:11.152Z,5.97
2018-07-25T04:12:45.692Z,5.00
2018-07-25T04:13:19.900Z,6.17
2018-07-25T04:13:53.788Z,5.43
2018-07-25T04:14:27.956Z,5.37
2018-07-25T04:15:02.166Z,5.90
2018-07-25T04:15:35.987Z,5.60
2018-07-25T04:16:10.153Z,5.77
2018-07-25T04:16:44.012Z,6.20
2018-07-25T04:17:17.872Z,5.70
2018-07-25T04:17:51.734Z,6.00
2018-07-25T04:18:25.614Z,5.80
2018-07-25T04:18:59.796Z,6.03
2018-07-25T04:19:34.531Z,6.40
2018-07-25T04:20:08.724Z,6.03
2018-07-25T04:20:42.630Z,5.37
2018-07-25T04:21:16.505Z,6.33
2018-07-25T04:21:50.460Z,5.77
2018-07-25T04:22:24.330Z,6.10
2018-07-25T04:22:58.153Z,6.57
2018-07-25T04:23:32.399Z,6.20
2018-07-25T04:24:06.385Z,5.67
2018-07-25T04:24:40.358Z,5.50
2018-07-25T04:25:14.716Z,5.97
2018-07-25T04:25:48.958Z,6.17
2018-07-25T04:26:22.835Z,5.93
2018-07-25T04:26:56.676Z,5.50
2018-07-25T04:27:30.899Z,6.07
2018-07-25T04:28:05.118Z,6.43
2018-07-25T04:28:39.008Z,5.47
2018-07-25T04:29:12.912Z,6.20
2018-07-25T04:29:46.781Z,4.97
2018-07-25T04:30:21.317Z,5.30
2018-07-25T04:30:55.196Z,5.00
2018-07-25T04:31:29.067Z,5.63
2018-07-25T04:32:02.943Z,5.50
2018-07-25T04:32:36.832Z,5.60
2018-07-25T04:33:11.014Z,5.10
2018-07-25T04:33:44.911Z,5.43
2018-07-25T04:34:18.779Z,5.43
2018-07-25T04:34:52.663Z,5.00
2018-07-25T04:35:27.060Z,5.20
2018-07-25T04:36:00.919Z,5.47
2018-07-25T04:36:34.863Z,5.17
2018-07-25T04:37:08.751Z,5.97
2018-07-25T04:37:43.559Z,5.60
2018-07-25T04:38:17.417Z,5.63
2018-07-25T04:38:51.620Z,5.50
2018-07-25T04:39:25.821Z,5.30
2018-07-25T04:40:00.005Z,5.33
2018-07-25T04:40:33.851Z,5.60
2018-07-25T04:41:07.725Z,5.30
2018-07-25T04:41:41.752Z,5.37
2018-07-25T04:42:15.602Z,5.57
2018-07-25T04:42:49.468Z,5.70
2018-07-25T04:43:23.572Z,5.03
2018-07-25T04:43:57.445Z,5.60
2018-07-25T04:44:31.691Z,5.50
2018-07-25T04:45:06.587Z,5.80
2018-07-25T04:45:40.443Z,5.60
2018-07-25T04:46:14.727Z,5.17
2018-07-25T04:46:48.709Z,5.57
2018-07-25T04:47:23.151Z,5.50
2018-07-25T04:47:57.017Z,5.80
2018-07-25T04:48:31.165Z,4.90
2018-07-25T04:49:05.082Z,5.50
2018-07-25T04:49:38.961Z,5.33
2018-07-25T04:50:12.823Z,5.33
2018-07-25T04:50:47.043Z,5.43
2018-07-25T04:51:20.893Z,6.20
2018-07-25T04:51:54.816Z,6.53
2018-07-25T04:52:29.017Z,5.30
2018-07-25T04:53:03.230Z,5.77
2018-07-25T04:53:37.424Z,5.07
2018-07-25T04:54:11.325Z,6.30
2018-07-25T04:54:45.311Z,5.30
2018-07-25T04:55:19.824Z,5.80
2018-07-25T04:55:53.661Z,5.50
2018-07-25T04:56:27.525Z,5.43
2018-07-25T04:57:01.425Z,5.97
2018-07-25T04:57:35.284Z,4.90
2018-07-25T04:58:09.213Z,5.63
2018-07-25T04:58:43.091Z,5.10
2018-07-25T04:59:16.987Z,5.07
2018-07-25T04:59:50.885Z,5.93
2018-07-25T05:00:25.437Z,5.80
2018-07-25T05:00:59.823Z,5.13
2018-07-25T05:01:34.264Z,4.70
2018-07-25T05:02:08.687Z,5.20
2018-07-25T05:02:42.563Z,5.80
2018-07-25T05:03:16.439Z,5.33
2018-07-25T05:03:50.288Z,5.40
2018-07-25T05:04:24.489Z,5.40
2018-07-25T05:04:58.388Z,4.97
2018-07-25T05:05:32.221Z,4.93
2018-07-25T05:06:06.121Z,5.13
2018-07-25T05:06:39.979Z,5.00
2018-07-25T05:07:13.928Z,4.20
2018-07-25T05:07:47.957Z,4.20
2018-07-25T05:08:21.853Z,4.87
2018-07-25T05:08:55.721Z,4.27
2018-07-25T05:09:29.606Z,4.90
2018-07-25T05:10:03.492Z,4.73
2018-07-25T05:10:37.380Z,4.47
2018-07-25T05:11:11.583Z,4.70
2018-07-25T05:11:45.440Z,4.83
2018-07-25T05:12:19.689Z,4.10
2018-07-25T05:12:53.969Z,4.80
2018-07-25T05:13:28.341Z,4.93
2018-07-25T05:14:02.252Z,4.60
2018-07-25T05:14:36.150Z,4.03
2018-07-25T05:15:10.762Z,4.43
2018-07-25T05:15:45.503Z,4.10
2018-07-25T05:16:19.369Z,4.20
2018-07-25T05:16:53.857Z,4.30
2018-07-25T05:17:27.699Z,4.70
2018-07-25T05:18:01.707Z,5.40
2018-07-25T05:18:36.055Z,4.10
2018-07-25T05:19:09.961Z,4.17
2018-07-25T05:19:43.847Z,4.43
2018-07-25T05:20:18.411Z,4.25
2018-07-25T05:20:53.185Z,4.28
2018-07-25T05:21:27.442Z,4.77
2018-07-25T05:22:01.328Z,4.27
2018-07-25T05:22:35.749Z,4.20
2018-07-25T05:23:09.662Z,5.10
2018-07-25T05:23:44.050Z,4.20
2018-07-25T05:24:17.945Z,4.23
2018-07-25T05:24:51.834Z,4.97
2018-07-25T05:25:25.757Z,4.37
2018-07-25T05:25:59.587Z,4.40
2018-07-25T05:26:33.495Z,3.80
2018-07-25T05:27:08.268Z,4.03
2018-07-25T05:27:42.486Z,4.67
2018-07-25T05:28:16.438Z,4.50
2018-07-25T05:28:50.429Z,4.60
2018-07-25T05:29:24.675Z,4.57
2018-07-25T05:29:58.578Z,4.30
2018-07-25T05:30:33.034Z,4.28
2018-07-25T05:31:07.522Z,4.08
2018-07-25T05:31:41.466Z,4.40
2018-07-25T05:32:15.689Z,4.27
2018-07-25T05:32:50.149Z,4.17
2018-07-25T05:33:24.645Z,4.92
2018-07-25T05:33:58.605Z,3.80
2018-07-25T05:34:32.829Z,3.60
2018-07-25T05:35:07.265Z,4.10
2018-07-25T05:35:42.066Z,3.87
2018-07-25T05:36:16.486Z,4.10
2018-07-25T05:36:50.386Z,3.83
2018-07-25T05:37:24.402Z,3.87
2018-07-25T05:37:58.945Z,4.12
2018-07-25T05:38:33.326Z,4.37
2018-07-25T05:39:10.282Z,4.25
2018-07-25T05:39:45.106Z,4.37
2018-07-25T05:40:18.958Z,3.87
2018-07-25T05:40:53.426Z,3.65
2018-07-25T05:41:27.282Z,3.83
2018-07-25T05:42:01.142Z,3.73
2018-07-25T05:42:35.002Z,3.63
2018-07-25T05:43:08.864Z,3.73
2018-07-25T05:43:43.105Z,4.20
2018-07-25T05:44:17.253Z,3.80
2018-07-25T05:44:51.458Z,4.00
2018-07-25T05:45:25.362Z,4.17
2018-07-25T05:45:59.927Z,4.00
2018-07-25T05:46:34.686Z,3.65
2018-07-25T05:47:09.560Z,3.87
2018-07-25T05:47:43.970Z,4.47
2018-07-25T05:48:17.871Z,3.60
2018-07-25T05:48:52.440Z,3.93
2018-07-25T05:49:26.408Z,3.67
2018-07-25T05:50:01.015Z,3.90
2018-07-25T05:50:35.798Z,3.80
2018-07-25T05:51:09.719Z,3.90
2018-07-25T05:51:44.162Z,4.25
2018-07-25T05:52:18.390Z,3.40
2018-07-25T05:52:52.833Z,4.15
2018-07-25T05:53:26.728Z,3.80
2018-07-25T05:54:01.634Z,3.80
2018-07-25T05:54:35.848Z,3.77
2018-07-25T05:55:09.752Z,3.53
2018-07-25T05:55:44.218Z,3.37
2018-07-25T05:56:18.090Z,4.13
2018-07-25T05:56:52.039Z,3.43
2018-07-25T05:57:26.053Z,3.27
2018-07-25T05:57:59.951Z,3.93
2018-07-25T05:58:34.401Z,3.25
2018-07-25T05:59:08.822Z,3.52
2018-07-25T05:59:43.030Z,3.30
2018-07-25T06:00:17.257Z,3.97
2018-07-25T06:00:51.440Z,3.67
2018-07-25T06:01:26.075Z,3.83
2018-07-25T06:02:00.264Z,3.67
2018-07-25T06:02:34.162Z,3.20
2018-07-25T06:03:08.398Z,3.47
2018-07-25T06:03:43.670Z,3.80
2018-07-25T06:04:17.534Z,3.53
2018-07-25T06:04:52.002Z,3.20
2018-07-25T06:05:25.844Z,3.70
2018-07-25T06:05:59.710Z,3.23
2018-07-25T06:06:34.502Z,3.55
2018-07-25T06:07:08.417Z,3.37
2018-07-25T06:07:42.322Z,3.50
2018-07-25T06:08:16.280Z,3.80
2018-07-25T06:08:50.516Z,3.80
2018-07-25T06:09:24.384Z,3.33
2018-07-25T06:09:58.304Z,3.67
2018-07-25T06:10:32.199Z,3.60
2018-07-25T06:11:06.706Z,3.43
2018-07-25T06:11:41.219Z,3.20
2018-07-25T06:12:15.174Z,3.40
2018-07-25T06:12:49.268Z,3.13
2018-07-25T06:13:23.148Z,3.70
2018-07-25T06:13:57.332Z,2.97
2018-07-25T06:14:31.204Z,3.20
2018-07-25T06:15:06.685Z,2.70
2018-07-25T06:15:40.553Z,3.03
2018-07-25T06:16:14.761Z,2.87
2018-07-25T06:16:48.995Z,2.90
2018-07-25T06:17:22.871Z,3.27
2018-07-25T06:17:56.719Z,2.83
2018-07-25T06:18:30.590Z,3.13
2018-07-25T06:19:04.471Z,3.00
2018-07-25T06:19:38.298Z,3.43
2018-07-25T06:20:12.157Z,3.20
2018-07-25T06:20:46.033Z,2.90
2018-07-25T06:21:19.884Z,2.80
2018-07-25T06:21:54.107Z,3.10
2018-07-25T06:22:28.302Z,2.70
2018-07-25T06:23:02.532Z,3.10
2018-07-25T06:23:36.383Z,2.67
2018-07-25T06:24:10.222Z,3.40
2018-07-25T06:24:44.135Z,2.73
2018-07-25T06:25:17.984Z,3.40
2018-07-25T06:25:52.230Z,2.80
2018-07-25T06:26:26.575Z,3.20
2018-07-25T06:27:00.543Z,3.10
2018-07-25T06:27:34.493Z,2.40
2018-07-25T06:28:08.698Z,3.20
2018-07-25T06:28:42.584Z,3.00
2018-07-25T06:29:16.802Z,3.13
2018-07-25T06:29:50.661Z,3.63
2018-07-25T06:30:24.808Z,3.30
2018-07-25T06:30:58.698Z,3.33
2018-07-25T06:31:32.592Z,3.20
2018-07-25T06:32:06.851Z,2.97
2018-07-25T06:32:40.664Z,3.70
2018-07-25T06:33:14.945Z,3.27
2018-07-25T06:33:49.156Z,3.17
2018-07-25T06:34:22.778Z,4.13
2018-07-25T06:34:56.679Z,3.50
2018-07-25T06:35:30.601Z,3.67
2018-07-25T06:36:04.519Z,3.90
2018-07-25T06:36:38.432Z,3.50
2018-07-25T06:37:12.371Z,3.40
2018-07-25T06:37:46.315Z,4.53
2018-07-25T06:38:20.201Z,4.47
2018-07-25T06:38:54.081Z,4.10
2018-07-25T06:39:27.968Z,3.80
2018-07-25T06:40:02.175Z,3.80
2018-07-25T06:40:36.880Z,3.93
2018-07-25T06:41:10.686Z,3.97
2018-07-25T06:41:44.900Z,3.80
2018-07-25T06:42:18.792Z,4.10
2018-07-25T06:42:52.660Z,3.77
2018-07-25T06:43:26.616Z,3.50
2018-07-25T06:44:00.652Z,4.03
2018-07-25T06:44:34.565Z,4.40
2018-07-25T06:45:08.782Z,3.70
2018-07-25T06:45:42.676Z,3.63
2018-07-25T06:46:57.069Z,4.07
2018-07-25T06:47:30.932Z,3.40
2018-07-25T06:48:05.239Z,3.87
2018-07-25T06:48:39.054Z,4.23
2018-07-25T06:49:12.927Z,3.73
2018-07-25T06:49:46.798Z,3.73
2018-07-25T06:50:20.695Z,4.10
2018-07-25T06:50:54.535Z,3.70
2018-07-25T06:51:28.383Z,3.60
2018-07-25T06:52:02.243Z,4.23
2018-07-25T06:52:36.241Z,3.60
2018-07-25T06:53:09.857Z,3.70
2018-07-25T06:53:43.672Z,3.93
2018-07-25T06:54:17.527Z,3.90
2018-07-25T06:54:51.752Z,3.83
2018-07-25T06:55:25.604Z,3.33
2018-07-25T06:55:59.524Z,3.63
2018-07-25T06:56:33.419Z,3.37
2018-07-25T06:57:07.596Z,3.20
2018-07-25T06:57:41.522Z,4.17
2018-07-25T06:58:15.712Z,4.10
2018-07-25T06:58:49.578Z,3.50
2018-07-25T06:59:23.602Z,4.07
2018-07-25T06:59:57.838Z,3.50
2018-07-25T07:00:32.118Z,3.60
2018-07-25T07:01:06.021Z,3.27
2018-07-25T07:01:39.871Z,3.27
2018-07-25T07:02:14.118Z,3.40
2018-07-25T07:02:48.190Z,3.40
2018-07-25T07:03:22.409Z,3.77
2018-07-25T07:03:56.252Z,3.10
2018-07-25T07:04:30.208Z,3.50
2018-07-25T07:05:04.481Z,4.00
2018-07-25T07:05:38.747Z,4.17
2018-07-25T07:06:13.016Z,3.43
2018-07-25T07:06:47.683Z,3.90
2018-07-25T07:07:22.048Z,3.80
2018-07-25T07:07:56.029Z,4.30
2018-07-25T07:08:30.270Z,3.90
2018-07-25T07:09:05.981Z,3.40
2018-07-25T07:09:39.896Z,3.90
2018-07-25T07:10:14.087Z,3.67
2018-07-25T07:10:48.290Z,3.10
2018-07-25T07:11:22.852Z,3.90
2018-07-25T07:11:56.770Z,3.80
2018-07-25T07:12:30.684Z,3.83
2018-07-25T07:13:04.581Z,3.40
2018-07-25T07:13:38.785Z,3.10
2018-07-25T07:14:12.657Z,3.63
2018-07-25T07:14:46.555Z,3.50
2018-07-25T07:15:20.271Z,3.90
2018-07-25T07:15:54.674Z,3.40
2018-07-25T07:16:28.923Z,3.70
2018-07-25T07:17:02.763Z,3.53
2018-07-25T07:17:36.653Z,3.30
2018-07-25T07:18:10.860Z,3.30
2018-07-25T07:18:44.773Z,3.03
2018-07-25T07:19:19.319Z,3.30
2018-07-25T07:19:53.210Z,3.30
2018-07-25T07:20:27.110Z,3.70
2018-07-25T07:21:00.997Z,3.43
2018-07-25T07:21:34.861Z,3.33
2018-07-25T07:22:09.072Z,3.57
2018-07-25T07:22:42.971Z,3.57
2018-07-25T07:23:16.986Z,2.60
2018-07-25T07:23:50.879Z,3.83
2018-07-25T07:24:24.735Z,3.17
2018-07-25T07:24:58.600Z,3.00
2018-07-25T07:25:32.781Z,2.87
2018-07-25T07:26:07.033Z,3.50
2018-07-25T07:26:41.021Z,3.50
2018-07-25T07:27:15.310Z,3.00
2018-07-25T07:27:49.522Z,2.87
2018-07-25T07:28:23.420Z,2.90
2018-07-25T07:28:57.794Z,2.70
2018-07-25T07:29:31.717Z,2.77
2018-07-25T07:30:06.958Z,2.47
2018-07-25T07:30:41.168Z,2.63
2018-07-25T07:31:15.144Z,3.07
2018-07-25T07:31:49.438Z,3.10
2018-07-25T07:32:23.338Z,3.23
2018-07-25T07:32:57.201Z,2.33
2018-07-25T07:33:31.101Z,2.17
2018-07-25T07:34:05.690Z,2.20
2018-07-25T07:34:39.569Z,2.50
2018-07-25T07:35:13.646Z,3.00